sensor_id;sensor_type;location;lat;lon;timestamp;P1;durP1;ratioP1;P2;durP2;ratioP2
4198;SDS011;2113;50.946;14.610;2023-08-24T00:01:48;8.45;;;7.55;;
4198;SDS011;2113;50.946;14.610;2023-08-24T00:04:16;8.73;;;7.55;;
4198;SDS011;2113;50.946;14.610;2023-08-24T00:06:45;9.10;;;8.20;;
4198;SDS011;2113;50.946;14.610;2023-08-24T00:09:13;7.90;;;6.68;;
4198;SDS011;2113;50.946;14.610;2023-08-24T00:11:42;12.25;;;8.02;;
4198;SDS011;2113;50.946;14.610;2023-08-24T00:14:10;7.43;;;6.63;;
4198;SDS011;2113;50.946;14.610;2023-08-24T00:16:40;10.40;;;6.65;;
4198;SDS011;2113;50.946;14.610;2023-08-24T00:19:10;9.27;;;7.18;;
4198;SDS011;2113;50.946;14.610;2023-08-24T00:21:39;10.05;;;7.55;;
4198;SDS011;2113;50.946;14.610;2023-08-24T00:24:08;8.55;;;6.43;;
4198;SDS011;2113;50.946;14.610;2023-08-24T00:26:36;7.25;;;6.20;;
4198;SDS011;2113;50.946;14.610;2023-08-24T00:29:05;11.05;;;6.75;;
4198;SDS011;2113;50.946;14.610;2023-08-24T00:31:33;9.75;;;6.45;;
4198;SDS011;2113;50.946;14.610;2023-08-24T00:34:03;8.32;;;6.50;;
4198;SDS011;2113;50.946;14.610;2023-08-24T00:36:32;17.80;;;8.38;;
4198;SDS011;2113;50.946;14.610;2023-08-24T00:39:00;10.35;;;6.80;;
4198;SDS011;2113;50.946;14.610;2023-08-24T00:41:29;8.43;;;7.20;;
4198;SDS011;2113;50.946;14.610;2023-08-24T00:43:58;9.57;;;7.40;;
4198;SDS011;2113;50.946;14.610;2023-08-24T00:46:26;9.27;;;7.43;;
4198;SDS011;2113;50.946;14.610;2023-08-24T00:48:58;11.15;;;7.55;;
4198;SDS011;2113;50.946;14.610;2023-08-24T00:51:29;8.35;;;6.70;;
4198;SDS011;2113;50.946;14.610;2023-08-24T00:53:57;11.20;;;7.45;;
4198;SDS011;2113;50.946;14.610;2023-08-24T00:56:25;11.10;;;6.72;;
4198;SDS011;2113;50.946;14.610;2023-08-24T00:58:53;8.68;;;6.30;;
4198;SDS011;2113;50.946;14.610;2023-08-24T01:01:22;9.15;;;6.88;;
4198;SDS011;2113;50.946;14.610;2023-08-24T01:03:53;8.18;;;6.60;;
4198;SDS011;2113;50.946;14.610;2023-08-24T01:06:22;11.13;;;6.90;;
4198;SDS011;2113;50.946;14.610;2023-08-24T01:08:52;8.32;;;7.40;;
4198;SDS011;2113;50.946;14.610;2023-08-24T01:11:22;8.07;;;6.82;;
4198;SDS011;2113;50.946;14.610;2023-08-24T01:14:00;8.10;;;6.82;;
4198;SDS011;2113;50.946;14.610;2023-08-24T01:16:36;9.07;;;6.13;;
4198;SDS011;2113;50.946;14.610;2023-08-24T01:19:14;9.18;;;7.07;;
4198;SDS011;2113;50.946;14.610;2023-08-24T01:21:58;13.95;;;7.10;;
4198;SDS011;2113;50.946;14.610;2023-08-24T01:24:36;8.50;;;7.63;;
4198;SDS011;2113;50.946;14.610;2023-08-24T01:27:09;9.10;;;7.63;;
4198;SDS011;2113;50.946;14.610;2023-08-24T01:32:36;10.13;;;7.15;;
4198;SDS011;2113;50.946;14.610;2023-08-24T01:35:07;8.70;;;7.20;;
4198;SDS011;2113;50.946;14.610;2023-08-24T01:37:37;7.00;;;6.18;;
4198;SDS011;2113;50.946;14.610;2023-08-24T01:40:06;6.45;;;5.85;;
4198;SDS011;2113;50.946;14.610;2023-08-24T01:42:45;6.47;;;5.82;;
4198;SDS011;2113;50.946;14.610;2023-08-24T01:45:19;9.98;;;7.10;;
4198;SDS011;2113;50.946;14.610;2023-08-24T01:47:52;7.40;;;6.35;;
4198;SDS011;2113;50.946;14.610;2023-08-24T01:50:22;9.32;;;6.60;;
4198;SDS011;2113;50.946;14.610;2023-08-24T01:52:50;10.05;;;6.78;;
4198;SDS011;2113;50.946;14.610;2023-08-24T01:55:20;11.60;;;7.35;;
4198;SDS011;2113;50.946;14.610;2023-08-24T01:57:50;8.00;;;6.45;;
4198;SDS011;2113;50.946;14.610;2023-08-24T02:00:19;8.43;;;6.82;;
4198;SDS011;2113;50.946;14.610;2023-08-24T02:02:47;6.95;;;6.22;;
4198;SDS011;2113;50.946;14.610;2023-08-24T02:05:20;8.75;;;7.15;;
4198;SDS011;2113;50.946;14.610;2023-08-24T02:08:29;9.88;;;7.57;;
4198;SDS011;2113;50.946;14.610;2023-08-24T02:13:52;6.95;;;5.43;;
4198;SDS011;2113;50.946;14.610;2023-08-24T02:16:20;8.10;;;6.13;;
4198;SDS011;2113;50.946;14.610;2023-08-24T02:18:50;9.32;;;5.70;;
4198;SDS011;2113;50.946;14.610;2023-08-24T02:21:19;9.82;;;6.13;;
4198;SDS011;2113;50.946;14.610;2023-08-24T02:23:49;10.20;;;6.97;;
4198;SDS011;2113;50.946;14.610;2023-08-24T02:26:17;11.93;;;7.53;;
4198;SDS011;2113;50.946;14.610;2023-08-24T02:28:47;7.60;;;5.93;;
4198;SDS011;2113;50.946;14.610;2023-08-24T02:31:16;12.07;;;6.82;;
4198;SDS011;2113;50.946;14.610;2023-08-24T02:33:45;10.38;;;6.20;;
4198;SDS011;2113;50.946;14.610;2023-08-24T02:36:16;9.98;;;6.95;;
4198;SDS011;2113;50.946;14.610;2023-08-24T02:38:44;7.50;;;6.00;;
4198;SDS011;2113;50.946;14.610;2023-08-24T02:41:13;9.90;;;6.70;;
4198;SDS011;2113;50.946;14.610;2023-08-24T02:43:41;8.88;;;6.53;;
4198;SDS011;2113;50.946;14.610;2023-08-24T02:46:13;7.60;;;6.35;;
4198;SDS011;2113;50.946;14.610;2023-08-24T02:48:47;8.55;;;5.95;;
4198;SDS011;2113;50.946;14.610;2023-08-24T02:51:15;8.35;;;6.25;;
4198;SDS011;2113;50.946;14.610;2023-08-24T02:53:44;7.78;;;5.90;;
4198;SDS011;2113;50.946;14.610;2023-08-24T02:56:12;9.82;;;6.90;;
4198;SDS011;2113;50.946;14.610;2023-08-24T02:58:41;6.65;;;5.93;;
4198;SDS011;2113;50.946;14.610;2023-08-24T03:01:09;11.15;;;6.85;;
4198;SDS011;2113;50.946;14.610;2023-08-24T03:03:38;11.25;;;7.45;;
4198;SDS011;2113;50.946;14.610;2023-08-24T03:06:08;8.00;;;5.60;;
4198;SDS011;2113;50.946;14.610;2023-08-24T03:08:37;11.90;;;6.00;;
4198;SDS011;2113;50.946;14.610;2023-08-24T03:11:06;6.97;;;5.90;;
4198;SDS011;2113;50.946;14.610;2023-08-24T03:13:36;7.63;;;6.10;;
4198;SDS011;2113;50.946;14.610;2023-08-24T03:16:07;8.25;;;7.05;;
4198;SDS011;2113;50.946;14.610;2023-08-24T03:18:37;6.78;;;5.90;;
4198;SDS011;2113;50.946;14.610;2023-08-24T03:21:06;8.18;;;6.07;;
4198;SDS011;2113;50.946;14.610;2023-08-24T03:23:36;6.75;;;5.45;;
4198;SDS011;2113;50.946;14.610;2023-08-24T03:26:06;8.35;;;6.40;;
4198;SDS011;2113;50.946;14.610;2023-08-24T03:28:34;8.40;;;6.80;;
4198;SDS011;2113;50.946;14.610;2023-08-24T03:31:02;7.72;;;6.80;;
4198;SDS011;2113;50.946;14.610;2023-08-24T03:33:31;9.73;;;7.00;;
4198;SDS011;2113;50.946;14.610;2023-08-24T03:36:01;15.63;;;7.50;;
4198;SDS011;2113;50.946;14.610;2023-08-24T03:38:30;9.43;;;6.65;;
4198;SDS011;2113;50.946;14.610;2023-08-24T03:41:03;7.38;;;6.38;;
4198;SDS011;2113;50.946;14.610;2023-08-24T03:43:34;8.13;;;6.78;;
4198;SDS011;2113;50.946;14.610;2023-08-24T03:46:04;9.13;;;6.75;;
4198;SDS011;2113;50.946;14.610;2023-08-24T03:48:33;10.07;;;7.18;;
4198;SDS011;2113;50.946;14.610;2023-08-24T03:51:02;7.90;;;6.72;;
4198;SDS011;2113;50.946;14.610;2023-08-24T03:53:31;9.95;;;6.75;;
4198;SDS011;2113;50.946;14.610;2023-08-24T03:56:00;7.45;;;6.75;;
4198;SDS011;2113;50.946;14.610;2023-08-24T03:58:30;8.40;;;6.70;;
4198;SDS011;2113;50.946;14.610;2023-08-24T04:01:00;7.90;;;6.53;;
4198;SDS011;2113;50.946;14.610;2023-08-24T04:03:29;10.23;;;6.82;;
4198;SDS011;2113;50.946;14.610;2023-08-24T04:05:57;8.57;;;6.65;;
4198;SDS011;2113;50.946;14.610;2023-08-24T04:08:28;10.10;;;6.95;;
4198;SDS011;2113;50.946;14.610;2023-08-24T04:10:57;8.93;;;7.28;;
4198;SDS011;2113;50.946;14.610;2023-08-24T04:13:26;8.23;;;7.20;;
4198;SDS011;2113;50.946;14.610;2023-08-24T04:15:55;7.93;;;7.15;;
4198;SDS011;2113;50.946;14.610;2023-08-24T04:18:25;9.48;;;7.00;;
4198;SDS011;2113;50.946;14.610;2023-08-24T04:20:53;9.85;;;6.65;;
4198;SDS011;2113;50.946;14.610;2023-08-24T04:23:25;9.00;;;8.02;;
4198;SDS011;2113;50.946;14.610;2023-08-24T04:25:53;8.20;;;7.00;;
4198;SDS011;2113;50.946;14.610;2023-08-24T04:28:22;10.15;;;6.78;;
4198;SDS011;2113;50.946;14.610;2023-08-24T04:30:50;10.18;;;7.72;;
4198;SDS011;2113;50.946;14.610;2023-08-24T04:33:21;11.68;;;7.95;;
4198;SDS011;2113;50.946;14.610;2023-08-24T04:35:50;9.10;;;7.45;;
4198;SDS011;2113;50.946;14.610;2023-08-24T04:38:19;12.73;;;6.85;;
4198;SDS011;2113;50.946;14.610;2023-08-24T04:40:48;9.18;;;7.82;;
4198;SDS011;2113;50.946;14.610;2023-08-24T04:43:18;9.90;;;6.88;;
4198;SDS011;2113;50.946;14.610;2023-08-24T04:45:49;8.27;;;6.38;;
4198;SDS011;2113;50.946;14.610;2023-08-24T04:48:20;10.13;;;7.63;;
4198;SDS011;2113;50.946;14.610;2023-08-24T04:50:50;8.75;;;7.80;;
4198;SDS011;2113;50.946;14.610;2023-08-24T04:53:19;12.48;;;7.32;;
4198;SDS011;2113;50.946;14.610;2023-08-24T04:55:48;8.38;;;7.13;;
4198;SDS011;2113;50.946;14.610;2023-08-24T04:58:16;8.27;;;7.28;;
4198;SDS011;2113;50.946;14.610;2023-08-24T05:00:45;8.77;;;7.85;;
4198;SDS011;2113;50.946;14.610;2023-08-24T05:03:13;8.82;;;7.60;;
4198;SDS011;2113;50.946;14.610;2023-08-24T05:05:45;12.85;;;7.72;;
4198;SDS011;2113;50.946;14.610;2023-08-24T05:08:13;9.68;;;7.68;;
4198;SDS011;2113;50.946;14.610;2023-08-24T05:10:42;11.75;;;7.75;;
4198;SDS011;2113;50.946;14.610;2023-08-24T05:13:10;9.05;;;7.88;;
4198;SDS011;2113;50.946;14.610;2023-08-24T05:15:39;12.10;;;8.73;;
4198;SDS011;2113;50.946;14.610;2023-08-24T05:18:07;9.00;;;8.10;;
4198;SDS011;2113;50.946;14.610;2023-08-24T05:20:36;9.25;;;7.97;;
4198;SDS011;2113;50.946;14.610;2023-08-24T05:23:07;7.53;;;6.50;;
4198;SDS011;2113;50.946;14.610;2023-08-24T05:25:35;8.38;;;6.65;;
4198;SDS011;2113;50.946;14.610;2023-08-24T05:28:04;6.43;;;5.72;;
4198;SDS011;2113;50.946;14.610;2023-08-24T05:30:34;6.50;;;5.72;;
4198;SDS011;2113;50.946;14.610;2023-08-24T05:33:03;10.05;;;7.65;;
4198;SDS011;2113;50.946;14.610;2023-08-24T05:35:32;9.43;;;6.80;;
4198;SDS011;2113;50.946;14.610;2023-08-24T05:38:00;8.52;;;6.68;;
4198;SDS011;2113;50.946;14.610;2023-08-24T05:40:33;10.60;;;6.90;;
4198;SDS011;2113;50.946;14.610;2023-08-24T05:43:01;7.95;;;6.85;;
4198;SDS011;2113;50.946;14.610;2023-08-24T05:45:30;13.52;;;7.30;;
4198;SDS011;2113;50.946;14.610;2023-08-24T05:47:59;9.07;;;6.13;;
4198;SDS011;2113;50.946;14.610;2023-08-24T05:50:27;10.52;;;7.68;;
4198;SDS011;2113;50.946;14.610;2023-08-24T05:52:56;7.15;;;6.35;;
4198;SDS011;2113;50.946;14.610;2023-08-24T05:55:25;11.00;;;7.30;;
4198;SDS011;2113;50.946;14.610;2023-08-24T05:57:57;9.52;;;7.95;;
4198;SDS011;2113;50.946;14.610;2023-08-24T06:00:25;8.38;;;7.55;;
4198;SDS011;2113;50.946;14.610;2023-08-24T06:02:54;13.10;;;7.20;;
4198;SDS011;2113;50.946;14.610;2023-08-24T06:05:22;9.20;;;6.60;;
4198;SDS011;2113;50.946;14.610;2023-08-24T06:07:51;9.43;;;7.82;;
4198;SDS011;2113;50.946;14.610;2023-08-24T06:10:20;9.32;;;6.90;;
4198;SDS011;2113;50.946;14.610;2023-08-24T06:12:49;8.38;;;7.07;;
4198;SDS011;2113;50.946;14.610;2023-08-24T06:15:19;9.27;;;7.00;;
4198;SDS011;2113;50.946;14.610;2023-08-24T06:17:50;7.32;;;6.63;;
4198;SDS011;2113;50.946;14.610;2023-08-24T06:20:19;8.05;;;6.07;;
4198;SDS011;2113;50.946;14.610;2023-08-24T06:22:47;6.03;;;5.40;;
4198;SDS011;2113;50.946;14.610;2023-08-24T06:25:18;7.63;;;6.80;;
4198;SDS011;2113;50.946;14.610;2023-08-24T06:27:47;6.10;;;5.50;;
4198;SDS011;2113;50.946;14.610;2023-08-24T06:30:15;6.53;;;5.60;;
4198;SDS011;2113;50.946;14.610;2023-08-24T06:32:45;8.20;;;5.93;;
4198;SDS011;2113;50.946;14.610;2023-08-24T06:35:14;7.28;;;5.72;;
4198;SDS011;2113;50.946;14.610;2023-08-24T06:37:42;7.57;;;6.07;;
4198;SDS011;2113;50.946;14.610;2023-08-24T06:40:11;7.18;;;5.45;;
4198;SDS011;2113;50.946;14.610;2023-08-24T06:42:42;6.28;;;5.00;;
4198;SDS011;2113;50.946;14.610;2023-08-24T06:45:10;7.97;;;6.53;;
4198;SDS011;2113;50.946;14.610;2023-08-24T06:47:39;8.63;;;5.68;;
4198;SDS011;2113;50.946;14.610;2023-08-24T06:50:10;5.85;;;5.07;;
4198;SDS011;2113;50.946;14.610;2023-08-24T06:52:38;9.00;;;6.50;;
4198;SDS011;2113;50.946;14.610;2023-08-24T06:55:08;9.18;;;6.30;;
4198;SDS011;2113;50.946;14.610;2023-08-24T06:57:37;6.70;;;5.25;;
4198;SDS011;2113;50.946;14.610;2023-08-24T07:00:05;8.48;;;5.10;;
4198;SDS011;2113;50.946;14.610;2023-08-24T07:02:36;6.10;;;4.70;;
4198;SDS011;2113;50.946;14.610;2023-08-24T07:05:05;5.78;;;4.10;;
4198;SDS011;2113;50.946;14.610;2023-08-24T07:07:37;5.37;;;3.57;;
4198;SDS011;2113;50.946;14.610;2023-08-24T07:10:06;4.37;;;3.53;;
4198;SDS011;2113;50.946;14.610;2023-08-24T07:12:35;6.07;;;3.77;;
4198;SDS011;2113;50.946;14.610;2023-08-24T07:15:05;5.03;;;2.90;;
4198;SDS011;2113;50.946;14.610;2023-08-24T07:17:34;6.40;;;3.43;;
4198;SDS011;2113;50.946;14.610;2023-08-24T07:20:03;5.37;;;3.80;;
4198;SDS011;2113;50.946;14.610;2023-08-24T07:22:33;7.87;;;3.10;;
4198;SDS011;2113;50.946;14.610;2023-08-24T07:25:03;7.00;;;3.50;;
4198;SDS011;2113;50.946;14.610;2023-08-24T07:27:32;5.07;;;3.97;;
4198;SDS011;2113;50.946;14.610;2023-08-24T07:30:01;4.63;;;3.97;;
4198;SDS011;2113;50.946;14.610;2023-08-24T07:32:52;5.23;;;3.60;;
4198;SDS011;2113;50.946;14.610;2023-08-24T07:35:20;5.77;;;4.30;;
4198;SDS011;2113;50.946;14.610;2023-08-24T07:37:51;6.50;;;3.20;;
4198;SDS011;2113;50.946;14.610;2023-08-24T07:40:22;6.87;;;3.83;;
4198;SDS011;2113;50.946;14.610;2023-08-24T07:42:54;4.40;;;3.90;;
4198;SDS011;2113;50.946;14.610;2023-08-24T07:45:23;6.50;;;4.63;;
4198;SDS011;2113;50.946;14.610;2023-08-24T07:47:52;8.97;;;4.60;;
4198;SDS011;2113;50.946;14.610;2023-08-24T07:50:21;4.60;;;4.00;;
4198;SDS011;2113;50.946;14.610;2023-08-24T07:52:50;7.97;;;3.87;;
4198;SDS011;2113;50.946;14.610;2023-08-24T07:55:24;5.10;;;3.30;;
4198;SDS011;2113;50.946;14.610;2023-08-24T07:57:53;4.60;;;3.77;;
4198;SDS011;2113;50.946;14.610;2023-08-24T08:00:21;5.93;;;3.30;;
4198;SDS011;2113;50.946;14.610;2023-08-24T08:02:51;6.33;;;3.50;;
4198;SDS011;2113;50.946;14.610;2023-08-24T08:05:19;5.27;;;3.50;;
4198;SDS011;2113;50.946;14.610;2023-08-24T08:07:49;5.50;;;3.70;;
4198;SDS011;2113;50.946;14.610;2023-08-24T08:10:18;4.40;;;2.97;;
4198;SDS011;2113;50.946;14.610;2023-08-24T08:12:49;7.00;;;4.17;;
4198;SDS011;2113;50.946;14.610;2023-08-24T08:15:18;5.37;;;3.47;;
4198;SDS011;2113;50.946;14.610;2023-08-24T08:17:46;6.17;;;3.30;;
4198;SDS011;2113;50.946;14.610;2023-08-24T08:20:17;6.80;;;3.73;;
4198;SDS011;2113;50.946;14.610;2023-08-24T08:22:45;3.60;;;3.13;;
4198;SDS011;2113;50.946;14.610;2023-08-24T08:25:14;5.00;;;3.60;;
4198;SDS011;2113;50.946;14.610;2023-08-24T08:27:44;6.17;;;3.60;;
4198;SDS011;2113;50.946;14.610;2023-08-24T08:30:14;6.53;;;3.63;;
4198;SDS011;2113;50.946;14.610;2023-08-24T08:32:43;5.37;;;3.30;;
4198;SDS011;2113;50.946;14.610;2023-08-24T08:35:11;3.50;;;3.10;;
4198;SDS011;2113;50.946;14.610;2023-08-24T08:37:39;5.37;;;3.00;;
4198;SDS011;2113;50.946;14.610;2023-08-24T08:40:09;3.63;;;2.50;;
4198;SDS011;2113;50.946;14.610;2023-08-24T08:42:38;4.00;;;3.40;;
4198;SDS011;2113;50.946;14.610;2023-08-24T08:45:08;4.17;;;2.53;;
4198;SDS011;2113;50.946;14.610;2023-08-24T08:47:39;3.50;;;2.90;;
4198;SDS011;2113;50.946;14.610;2023-08-24T08:50:09;4.03;;;3.40;;
4198;SDS011;2113;50.946;14.610;2023-08-24T08:52:38;3.50;;;2.93;;
4198;SDS011;2113;50.946;14.610;2023-08-24T08:55:06;3.80;;;2.73;;
4198;SDS011;2113;50.946;14.610;2023-08-24T08:57:39;4.27;;;2.97;;
4198;SDS011;2113;50.946;14.610;2023-08-24T09:00:10;3.83;;;3.00;;
4198;SDS011;2113;50.946;14.610;2023-08-24T09:02:43;4.47;;;3.00;;
4198;SDS011;2113;50.946;14.610;2023-08-24T09:05:14;5.50;;;3.40;;
4198;SDS011;2113;50.946;14.610;2023-08-24T09:07:42;3.27;;;2.60;;
4198;SDS011;2113;50.946;14.610;2023-08-24T09:10:11;4.60;;;2.97;;
4198;SDS011;2113;50.946;14.610;2023-08-24T09:12:40;3.20;;;2.73;;
4198;SDS011;2113;50.946;14.610;2023-08-24T09:15:09;4.60;;;3.40;;
4198;SDS011;2113;50.946;14.610;2023-08-24T09:17:43;6.00;;;3.50;;
4198;SDS011;2113;50.946;14.610;2023-08-24T09:20:13;5.80;;;3.40;;
4198;SDS011;2113;50.946;14.610;2023-08-24T09:22:42;6.67;;;3.13;;
4198;SDS011;2113;50.946;14.610;2023-08-24T09:25:10;3.50;;;3.10;;
4198;SDS011;2113;50.946;14.610;2023-08-24T09:31:26;4.17;;;3.17;;
4198;SDS011;2113;50.946;14.610;2023-08-24T09:34:05;4.30;;;3.13;;
4198;SDS011;2113;50.946;14.610;2023-08-24T09:36:33;4.83;;;3.30;;
4198;SDS011;2113;50.946;14.610;2023-08-24T09:39:03;6.30;;;3.77;;
4198;SDS011;2113;50.946;14.610;2023-08-24T09:41:37;6.50;;;3.00;;
4198;SDS011;2113;50.946;14.610;2023-08-24T09:44:06;7.87;;;3.80;;
4198;SDS011;2113;50.946;14.610;2023-08-24T09:46:35;4.20;;;2.90;;
4198;SDS011;2113;50.946;14.610;2023-08-24T09:49:07;4.00;;;3.10;;
4198;SDS011;2113;50.946;14.610;2023-08-24T09:51:37;5.10;;;3.60;;
4198;SDS011;2113;50.946;14.610;2023-08-24T09:54:07;4.97;;;3.40;;
4198;SDS011;2113;50.946;14.610;2023-08-24T09:56:38;5.67;;;3.33;;
4198;SDS011;2113;50.946;14.610;2023-08-24T09:59:10;4.67;;;3.70;;
4198;SDS011;2113;50.946;14.610;2023-08-24T10:01:41;4.13;;;3.47;;
4198;SDS011;2113;50.946;14.610;2023-08-24T10:04:13;4.17;;;3.00;;
4198;SDS011;2113;50.946;14.610;2023-08-24T10:06:44;8.40;;;2.90;;
4198;SDS011;2113;50.946;14.610;2023-08-24T10:09:19;6.20;;;3.73;;
4198;SDS011;2113;50.946;14.610;2023-08-24T10:11:52;4.57;;;3.87;;
4198;SDS011;2113;50.946;14.610;2023-08-24T10:14:26;4.23;;;3.47;;
4198;SDS011;2113;50.946;14.610;2023-08-24T10:16:59;4.53;;;3.50;;
4198;SDS011;2113;50.946;14.610;2023-08-24T10:19:30;3.70;;;3.20;;
4198;SDS011;2113;50.946;14.610;2023-08-24T10:22:00;7.07;;;3.70;;
4198;SDS011;2113;50.946;14.610;2023-08-24T10:24:30;3.73;;;3.20;;
4198;SDS011;2113;50.946;14.610;2023-08-24T10:26:59;5.43;;;3.00;;
4198;SDS011;2113;50.946;14.610;2023-08-24T10:29:31;3.50;;;3.00;;
4198;SDS011;2113;50.946;14.610;2023-08-24T10:39:30;4.30;;;3.40;;
4198;SDS011;2113;50.946;14.610;2023-08-24T10:41:59;4.77;;;3.10;;
4198;SDS011;2113;50.946;14.610;2023-08-24T10:44:33;3.70;;;3.10;;
4198;SDS011;2113;50.946;14.610;2023-08-24T10:47:13;4.40;;;3.57;;
4198;SDS011;2113;50.946;14.610;2023-08-24T10:49:43;6.50;;;3.07;;
4198;SDS011;2113;50.946;14.610;2023-08-24T10:52:19;4.83;;;3.07;;
4198;SDS011;2113;50.946;14.610;2023-08-24T10:54:52;8.97;;;3.27;;
4198;SDS011;2113;50.946;14.610;2023-08-24T10:57:22;4.20;;;3.07;;
4198;SDS011;2113;50.946;14.610;2023-08-24T10:59:57;3.80;;;2.77;;
4198;SDS011;2113;50.946;14.610;2023-08-24T11:02:28;5.57;;;3.20;;
4198;SDS011;2113;50.946;14.610;2023-08-24T11:05:04;7.23;;;2.90;;
4198;SDS011;2113;50.946;14.610;2023-08-24T11:07:35;4.97;;;3.50;;
4198;SDS011;2113;50.946;14.610;2023-08-24T11:10:18;3.30;;;2.90;;
4198;SDS011;2113;50.946;14.610;2023-08-24T11:15:42;4.33;;;3.20;;
4198;SDS011;2113;50.946;14.610;2023-08-24T11:18:15;5.17;;;3.43;;
4198;SDS011;2113;50.946;14.610;2023-08-24T11:20:48;5.53;;;3.40;;
4198;SDS011;2113;50.946;14.610;2023-08-24T11:23:18;6.43;;;2.93;;
4198;SDS011;2113;50.946;14.610;2023-08-24T11:25:50;7.77;;;3.60;;
4198;SDS011;2113;50.946;14.610;2023-08-24T11:28:22;4.57;;;3.47;;
4198;SDS011;2113;50.946;14.610;2023-08-24T11:30:51;3.83;;;2.87;;
4198;SDS011;2113;50.946;14.610;2023-08-24T11:33:27;4.97;;;3.57;;
4198;SDS011;2113;50.946;14.610;2023-08-24T11:35:57;5.60;;;3.37;;
4198;SDS011;2113;50.946;14.610;2023-08-24T11:38:34;4.67;;;2.87;;
4198;SDS011;2113;50.946;14.610;2023-08-24T11:41:14;5.43;;;3.00;;
4198;SDS011;2113;50.946;14.610;2023-08-24T11:43:43;4.27;;;2.80;;
4198;SDS011;2113;50.946;14.610;2023-08-24T11:46:14;4.10;;;3.47;;
4198;SDS011;2113;50.946;14.610;2023-08-24T11:48:43;5.97;;;3.57;;
4198;SDS011;2113;50.946;14.610;2023-08-24T11:51:12;4.40;;;3.33;;
4198;SDS011;2113;50.946;14.610;2023-08-24T11:53:49;4.87;;;2.87;;
4198;SDS011;2113;50.946;14.610;2023-08-24T11:56:18;6.20;;;3.47;;
4198;SDS011;2113;50.946;14.610;2023-08-24T11:58:48;5.33;;;3.60;;
4198;SDS011;2113;50.946;14.610;2023-08-24T12:01:18;4.37;;;3.30;;
4198;SDS011;2113;50.946;14.610;2023-08-24T12:03:46;4.27;;;3.60;;
4198;SDS011;2113;50.946;14.610;2023-08-24T12:06:15;5.97;;;3.90;;
4198;SDS011;2113;50.946;14.610;2023-08-24T12:08:45;4.60;;;3.70;;
4198;SDS011;2113;50.946;14.610;2023-08-24T12:11:15;4.70;;;3.20;;
4198;SDS011;2113;50.946;14.610;2023-08-24T12:13:48;6.73;;;3.77;;
4198;SDS011;2113;50.946;14.610;2023-08-24T12:16:17;4.30;;;3.27;;
4198;SDS011;2113;50.946;14.610;2023-08-24T12:18:47;4.03;;;3.50;;
4198;SDS011;2113;50.946;14.610;2023-08-24T12:21:16;6.57;;;3.73;;
4198;SDS011;2113;50.946;14.610;2023-08-24T12:23:55;3.60;;;2.77;;
4198;SDS011;2113;50.946;14.610;2023-08-24T12:26:25;9.40;;;3.83;;
4198;SDS011;2113;50.946;14.610;2023-08-24T12:28:59;4.57;;;3.57;;
4198;SDS011;2113;50.946;14.610;2023-08-24T12:31:29;7.53;;;4.23;;
4198;SDS011;2113;50.946;14.610;2023-08-24T12:33:58;5.90;;;3.70;;
4198;SDS011;2113;50.946;14.610;2023-08-24T12:36:28;5.60;;;3.37;;
4198;SDS011;2113;50.946;14.610;2023-08-24T12:38:57;8.10;;;3.73;;
4198;SDS011;2113;50.946;14.610;2023-08-24T12:41:26;8.33;;;3.60;;
4198;SDS011;2113;50.946;14.610;2023-08-24T12:43:54;5.60;;;4.27;;
4198;SDS011;2113;50.946;14.610;2023-08-24T12:46:24;7.63;;;4.37;;
4198;SDS011;2113;50.946;14.610;2023-08-24T12:48:54;7.60;;;4.20;;
4198;SDS011;2113;50.946;14.610;2023-08-24T12:51:23;4.83;;;3.60;;
4198;SDS011;2113;50.946;14.610;2023-08-24T12:53:51;4.53;;;3.77;;
4198;SDS011;2113;50.946;14.610;2023-08-24T12:56:20;5.23;;;4.27;;
4198;SDS011;2113;50.946;14.610;2023-08-24T12:58:48;4.60;;;3.70;;
4198;SDS011;2113;50.946;14.610;2023-08-24T13:04:14;6.97;;;3.93;;
4198;SDS011;2113;50.946;14.610;2023-08-24T13:06:42;12.63;;;3.90;;
4198;SDS011;2113;50.946;14.610;2023-08-24T13:09:10;5.83;;;3.67;;
4198;SDS011;2113;50.946;14.610;2023-08-24T13:11:38;7.00;;;4.67;;
4198;SDS011;2113;50.946;14.610;2023-08-24T13:14:07;5.90;;;3.83;;
4198;SDS011;2113;50.946;14.610;2023-08-24T13:16:35;6.70;;;4.20;;
4198;SDS011;2113;50.946;14.610;2023-08-24T13:19:05;6.00;;;3.63;;
4198;SDS011;2113;50.946;14.610;2023-08-24T13:21:34;5.03;;;4.00;;
4198;SDS011;2113;50.946;14.610;2023-08-24T13:24:03;8.80;;;4.30;;
4198;SDS011;2113;50.946;14.610;2023-08-24T13:26:32;7.37;;;4.03;;
4198;SDS011;2113;50.946;14.610;2023-08-24T13:29:00;9.53;;;4.53;;
4198;SDS011;2113;50.946;14.610;2023-08-24T13:31:29;8.77;;;4.63;;
4198;SDS011;2113;50.946;14.610;2023-08-24T13:33:57;15.40;;;5.90;;
4198;SDS011;2113;50.946;14.610;2023-08-24T13:36:27;5.90;;;4.77;;
4198;SDS011;2113;50.946;14.610;2023-08-24T13:38:55;4.33;;;3.63;;
4198;SDS011;2113;50.946;14.610;2023-08-24T13:41:24;4.83;;;4.10;;
4198;SDS011;2113;50.946;14.610;2023-08-24T13:43:52;5.67;;;3.80;;
4198;SDS011;2113;50.946;14.610;2023-08-24T13:46:21;9.50;;;4.40;;
4198;SDS011;2113;50.946;14.610;2023-08-24T13:48:50;5.33;;;4.07;;
4198;SDS011;2113;50.946;14.610;2023-08-24T13:51:18;5.00;;;4.00;;
4198;SDS011;2113;50.946;14.610;2023-08-24T13:53:48;7.60;;;3.80;;
4198;SDS011;2113;50.946;14.610;2023-08-24T13:56:17;6.97;;;4.07;;
4198;SDS011;2113;50.946;14.610;2023-08-24T13:58:45;6.80;;;4.63;;
4198;SDS011;2113;50.946;14.610;2023-08-24T14:01:13;6.50;;;4.07;;
4198;SDS011;2113;50.946;14.610;2023-08-24T14:03:41;7.30;;;4.10;;
4198;SDS011;2113;50.946;14.610;2023-08-24T14:06:10;4.53;;;4.10;;
4198;SDS011;2113;50.946;14.610;2023-08-24T14:08:39;7.40;;;4.40;;
4198;SDS011;2113;50.946;14.610;2023-08-24T14:11:09;7.73;;;4.60;;
4198;SDS011;2113;50.946;14.610;2023-08-24T14:13:40;7.80;;;4.43;;
4198;SDS011;2113;50.946;14.610;2023-08-24T14:16:09;6.90;;;4.33;;
4198;SDS011;2113;50.946;14.610;2023-08-24T14:18:37;9.53;;;4.87;;
4198;SDS011;2113;50.946;14.610;2023-08-24T14:21:06;7.80;;;4.93;;
4198;SDS011;2113;50.946;14.610;2023-08-24T14:23:37;6.30;;;5.70;;
4198;SDS011;2113;50.946;14.610;2023-08-24T14:26:06;6.17;;;4.40;;
4198;SDS011;2113;50.946;14.610;2023-08-24T14:28:48;5.20;;;4.57;;
4198;SDS011;2113;50.946;14.610;2023-08-24T14:31:20;5.70;;;4.67;;
4198;SDS011;2113;50.946;14.610;2023-08-24T14:33:49;5.87;;;4.43;;
4198;SDS011;2113;50.946;14.610;2023-08-24T14:36:18;5.20;;;4.10;;
4198;SDS011;2113;50.946;14.610;2023-08-24T14:38:46;5.50;;;4.27;;
4198;SDS011;2113;50.946;14.610;2023-08-24T14:41:15;6.80;;;4.37;;
4198;SDS011;2113;50.946;14.610;2023-08-24T14:43:44;5.70;;;4.97;;
4198;SDS011;2113;50.946;14.610;2023-08-24T14:46:15;5.83;;;4.43;;
4198;SDS011;2113;50.946;14.610;2023-08-24T14:48:43;5.10;;;4.27;;
4198;SDS011;2113;50.946;14.610;2023-08-24T14:51:12;4.87;;;4.20;;
4198;SDS011;2113;50.946;14.610;2023-08-24T14:53:40;13.00;;;4.33;;
4198;SDS011;2113;50.946;14.610;2023-08-24T14:56:10;7.30;;;3.90;;
4198;SDS011;2113;50.946;14.610;2023-08-24T14:58:38;5.37;;;4.87;;
4198;SDS011;2113;50.946;14.610;2023-08-24T15:01:07;6.90;;;4.50;;
4198;SDS011;2113;50.946;14.610;2023-08-24T15:03:37;6.03;;;5.00;;
4198;SDS011;2113;50.946;14.610;2023-08-24T15:06:06;6.27;;;5.13;;
4198;SDS011;2113;50.946;14.610;2023-08-24T15:08:35;6.30;;;4.97;;
4198;SDS011;2113;50.946;14.610;2023-08-24T15:11:04;9.80;;;5.23;;
4198;SDS011;2113;50.946;14.610;2023-08-24T15:13:34;5.67;;;5.17;;
4198;SDS011;2113;50.946;14.610;2023-08-24T15:16:02;5.87;;;4.67;;
4198;SDS011;2113;50.946;14.610;2023-08-24T15:18:31;6.10;;;4.80;;
4198;SDS011;2113;50.946;14.610;2023-08-24T15:21:01;5.93;;;5.40;;
4198;SDS011;2113;50.946;14.610;2023-08-24T15:23:31;4.93;;;4.43;;
4198;SDS011;2113;50.946;14.610;2023-08-24T15:25:59;5.60;;;4.27;;
4198;SDS011;2113;50.946;14.610;2023-08-24T15:28:35;6.80;;;4.87;;
4198;SDS011;2113;50.946;14.610;2023-08-24T15:31:04;7.80;;;5.10;;
4198;SDS011;2113;50.946;14.610;2023-08-24T15:33:32;6.43;;;5.20;;
4198;SDS011;2113;50.946;14.610;2023-08-24T15:36:04;5.33;;;4.60;;
4198;SDS011;2113;50.946;14.610;2023-08-24T15:38:32;8.03;;;4.67;;
4198;SDS011;2113;50.946;14.610;2023-08-24T15:41:03;6.30;;;5.37;;